sensor_id;sensor_type;location;lat;lon;timestamp;pressure;altitude;pressure_sealevel;temperature;humidity
41596;BME280;27283;52.504;13.358;2022-12-07T00:00:31;100912.69;;;3.32;88.34
41596;BME280;27283;52.504;13.358;2022-12-07T00:03:10;100910.78;;;3.93;85.67
41596;BME280;27283;52.504;13.358;2022-12-07T00:05:42;100908.94;;;2.87;90.06
41596;BME280;27283;52.504;13.358;2022-12-07T00:08:15;100904.97;;;3.05;90.45
41596;BME280;27283;52.504;13.358;2022-12-07T00:10:50;100907.38;;;3.32;88.29
41596;BME280;27283;52.504;13.358;2022-12-07T00:13:25;100902.19;;;3.89;85.89
41596;BME280;27283;52.504;13.358;2022-12-07T00:16:03;100890.19;;;3.25;87.31
41596;BME280;27283;52.504;13.358;2022-12-07T00:18:37;100893.69;;;3.72;85.71
41596;BME280;27283;52.504;13.358;2022-12-07T00:21:12;100901.06;;;2.98;86.03
41596;BME280;27283;52.504;13.358;2022-12-07T00:23:45;100895.09;;;2.94;86.79
41596;BME280;27283;52.504;13.358;2022-12-07T00:26:23;100894.03;;;3.21;86.09
41596;BME280;27283;52.504;13.358;2022-12-07T00:28:57;100891.34;;;3.10;86.30
41596;BME280;27283;52.504;13.358;2022-12-07T00:31:31;100885.94;;;3.69;83.28
41596;BME280;27283;52.504;13.358;2022-12-07T00:34:12;100884.59;;;3.52;83.57
41596;BME280;27283;52.504;13.358;2022-12-07T00:36:45;100886.16;;;3.19;84.01
41596;BME280;27283;52.504;13.358;2022-12-07T00:39:16;100885.13;;;3.33;82.05
41596;BME280;27283;52.504;13.358;2022-12-07T00:41:51;100882.13;;;2.78;84.71
41596;BME280;27283;52.504;13.358;2022-12-07T00:44:23;100873.19;;;3.04;83.46
41596;BME280;27283;52.504;13.358;2022-12-07T00:46:54;100879.16;;;2.70;82.47
41596;BME280;27283;52.504;13.358;2022-12-07T00:49:26;100873.03;;;2.33;84.69
41596;BME280;27283;52.504;13.358;2022-12-07T00:51:58;100877.66;;;2.42;85.16
41596;BME280;27283;52.504;13.358;2022-12-07T00:54:30;100872.06;;;2.34;84.09
41596;BME280;27283;52.504;13.358;2022-12-07T00:57:04;100878.13;;;2.23;82.99
41596;BME280;27283;52.504;13.358;2022-12-07T00:59:35;100870.59;;;2.29;83.05
41596;BME280;27283;52.504;13.358;2022-12-07T01:02:07;100868.88;;;2.28;82.31
41596;BME280;27283;52.504;13.358;2022-12-07T01:04:40;100862.38;;;2.70;81.33
41596;BME280;27283;52.504;13.358;2022-12-07T01:07:11;100864.72;;;2.74;80.96
41596;BME280;27283;52.504;13.358;2022-12-07T01:09:44;100862.72;;;2.65;80.50
41596;BME280;27283;52.504;13.358;2022-12-07T01:12:19;100864.25;;;2.80;79.97
41596;BME280;27283;52.504;13.358;2022-12-07T01:14:50;100863.78;;;2.62;81.44
41596;BME280;27283;52.504;13.358;2022-12-07T01:17:22;100850.41;;;2.88;79.51
41596;BME280;27283;52.504;13.358;2022-12-07T01:19:54;100849.34;;;2.91;79.42
41596;BME280;27283;52.504;13.358;2022-12-07T01:22:26;100855.31;;;3.06;78.24
41596;BME280;27283;52.504;13.358;2022-12-07T01:24:57;100856.63;;;3.35;79.12
41596;BME280;27283;52.504;13.358;2022-12-07T01:27:32;100854.38;;;2.82;79.74
41596;BME280;27283;52.504;13.358;2022-12-07T01:30:09;100845.50;;;2.95;79.79
41596;BME280;27283;52.504;13.358;2022-12-07T01:32:44;100842.72;;;2.96;79.93
41596;BME280;27283;52.504;13.358;2022-12-07T01:35:15;100843.88;;;3.16;78.24
41596;BME280;27283;52.504;13.358;2022-12-07T01:37:46;100832.09;;;3.32;78.73
41596;BME280;27283;52.504;13.358;2022-12-07T01:40:17;100839.19;;;4.01;77.08
41596;BME280;27283;52.504;13.358;2022-12-07T01:42:51;100839.19;;;3.67;75.95
41596;BME280;27283;52.504;13.358;2022-12-07T01:45:38;100830.66;;;3.39;77.76
41596;BME280;27283;52.504;13.358;2022-12-07T01:48:14;100834.56;;;3.11;78.00
41596;BME280;27283;52.504;13.358;2022-12-07T01:50:49;100831.59;;;2.91;78.37
41596;BME280;27283;52.504;13.358;2022-12-07T01:53:28;100822.94;;;3.36;79.26
41596;BME280;27283;52.504;13.358;2022-12-07T01:56:00;100826.72;;;3.67;76.95
41596;BME280;27283;52.504;13.358;2022-12-07T01:58:35;100814.66;;;3.86;76.66
41596;BME280;27283;52.504;13.358;2022-12-07T02:01:07;100811.72;;;3.66;76.69
41596;BME280;27283;52.504;13.358;2022-12-07T02:03:40;100808.09;;;3.79;77.02
41596;BME280;27283;52.504;13.358;2022-12-07T02:06:15;100808.25;;;3.88;75.97
41596;BME280;27283;52.504;13.358;2022-12-07T02:08:49;100812.09;;;3.50;76.75
41596;BME280;27283;52.504;13.358;2022-12-07T02:11:20;100801.06;;;3.32;77.38
41596;BME280;27283;52.504;13.358;2022-12-07T02:13:55;100803.84;;;3.31;78.21
41596;BME280;27283;52.504;13.358;2022-12-07T02:16:33;100805.56;;;3.54;76.46
41596;BME280;27283;52.504;13.358;2022-12-07T02:22:31;100791.75;;;3.38;78.17
41596;BME280;27283;52.504;13.358;2022-12-07T02:25:13;100797.94;;;3.39;78.35
41596;BME280;27283;52.504;13.358;2022-12-07T02:27:55;100791.66;;;3.62;77.35
41596;BME280;27283;52.504;13.358;2022-12-07T02:30:32;100802.56;;;3.93;76.63
41596;BME280;27283;52.504;13.358;2022-12-07T02:33:11;100800.97;;;3.68;75.90
41596;BME280;27283;52.504;13.358;2022-12-07T02:35:48;100785.63;;;3.60;77.10
41596;BME280;27283;52.504;13.358;2022-12-07T02:38:30;100780.31;;;3.60;76.72
41596;BME280;27283;52.504;13.358;2022-12-07T02:41:11;100774.88;;;3.62;76.87
41596;BME280;27283;52.504;13.358;2022-12-07T02:43:46;100782.50;;;3.78;76.33
41596;BME280;27283;52.504;13.358;2022-12-07T02:46:25;100769.31;;;3.65;77.41
41596;BME280;27283;52.504;13.358;2022-12-07T02:48:58;100774.28;;;3.58;78.55
41596;BME280;27283;52.504;13.358;2022-12-07T02:51:31;100770.03;;;3.55;78.36
41596;BME280;27283;52.504;13.358;2022-12-07T02:54:09;100770.50;;;3.49;78.38
41596;BME280;27283;52.504;13.358;2022-12-07T02:56:48;100769.44;;;3.63;77.86
41596;BME280;27283;52.504;13.358;2022-12-07T02:59:28;100757.59;;;3.67;78.58
41596;BME280;27283;52.504;13.358;2022-12-07T03:02:14;100760.47;;;3.53;78.44
41596;BME280;27283;52.504;13.358;2022-12-07T03:04:55;100759.28;;;3.80;77.70
41596;BME280;27283;52.504;13.358;2022-12-07T03:07:38;100758.03;;;3.95;78.05
41596;BME280;27283;52.504;13.358;2022-12-07T03:10:18;100755.28;;;3.74;78.56
41596;BME280;27283;52.504;13.358;2022-12-07T03:12:59;100746.44;;;3.96;77.47
41596;BME280;27283;52.504;13.358;2022-12-07T03:15:38;100737.63;;;3.84;78.13
41596;BME280;27283;52.504;13.358;2022-12-07T03:18:18;100733.72;;;4.00;77.82
41596;BME280;27283;52.504;13.358;2022-12-07T03:20:55;100728.94;;;3.71;78.54
41596;BME280;27283;52.504;13.358;2022-12-07T03:23:31;100724.88;;;4.11;78.80
41596;BME280;27283;52.504;13.358;2022-12-07T03:26:04;100730.59;;;3.83;77.96
41596;BME280;27283;52.504;13.358;2022-12-07T03:28:41;100713.81;;;3.94;78.86
41596;BME280;27283;52.504;13.358;2022-12-07T03:31:30;100713.19;;;3.90;78.19
41596;BME280;27283;52.504;13.358;2022-12-07T03:34:10;100707.91;;;3.68;79.83
41596;BME280;27283;52.504;13.358;2022-12-07T03:36:51;100698.38;;;4.09;79.26
41596;BME280;27283;52.504;13.358;2022-12-07T03:39:39;100688.16;;;3.82;79.37
41596;BME280;27283;52.504;13.358;2022-12-07T03:42:12;100683.28;;;4.10;78.52
41596;BME280;27283;52.504;13.358;2022-12-07T03:44:44;100687.91;;;3.96;78.61
41596;BME280;27283;52.504;13.358;2022-12-07T03:47:22;100682.97;;;4.24;78.58
41596;BME280;27283;52.504;13.358;2022-12-07T03:50:07;100669.50;;;4.04;78.78
41596;BME280;27283;52.504;13.358;2022-12-07T03:52:43;100676.00;;;3.68;79.31
41596;BME280;27283;52.504;13.358;2022-12-07T03:55:20;100667.09;;;4.34;77.42
41596;BME280;27283;52.504;13.358;2022-12-07T03:57:56;100666.44;;;4.20;78.70
41596;BME280;27283;52.504;13.358;2022-12-07T04:00:30;100658.84;;;4.04;78.58
41596;BME280;27283;52.504;13.358;2022-12-07T04:03:02;100658.56;;;4.19;78.66
41596;BME280;27283;52.504;13.358;2022-12-07T04:05:37;100649.75;;;4.18;77.95
41596;BME280;27283;52.504;13.358;2022-12-07T04:08:09;100649.41;;;4.12;78.65
41596;BME280;27283;52.504;13.358;2022-12-07T04:10:41;100660.31;;;4.08;79.23
41596;BME280;27283;52.504;13.358;2022-12-07T04:13:13;100650.72;;;3.73;80.00
41596;BME280;27283;52.504;13.358;2022-12-07T04:15:45;100652.00;;;3.90;79.58
41596;BME280;27283;52.504;13.358;2022-12-07T04:18:17;100645.94;;;4.00;79.78
41596;BME280;27283;52.504;13.358;2022-12-07T04:20:52;100632.66;;;4.21;78.94
41596;BME280;27283;52.504;13.358;2022-12-07T04:23:25;100641.47;;;4.00;79.43
41596;BME280;27283;52.504;13.358;2022-12-07T04:25:56;100636.06;;;4.23;79.29
41596;BME280;27283;52.504;13.358;2022-12-07T04:28:28;100637.75;;;3.92;80.64
41596;BME280;27283;52.504;13.358;2022-12-07T04:31:04;100626.41;;;3.89;81.02
41596;BME280;27283;52.504;13.358;2022-12-07T04:33:36;100632.25;;;4.04;80.35
41596;BME280;27283;52.504;13.358;2022-12-07T04:36:10;100623.81;;;3.99;80.77
41596;BME280;27283;52.504;13.358;2022-12-07T04:38:43;100619.75;;;4.16;80.83
41596;BME280;27283;52.504;13.358;2022-12-07T04:41:15;100608.97;;;4.18;80.65
41596;BME280;27283;52.504;13.358;2022-12-07T04:43:49;100609.63;;;4.10;81.17
41596;BME280;27283;52.504;13.358;2022-12-07T04:46:21;100604.03;;;4.13;80.70
41596;BME280;27283;52.504;13.358;2022-12-07T04:48:54;100608.59;;;3.90;82.39
41596;BME280;27283;52.504;13.358;2022-12-07T04:51:29;100612.97;;;4.12;81.84
41596;BME280;27283;52.504;13.358;2022-12-07T04:54:00;100604.16;;;4.12;81.50
41596;BME280;27283;52.504;13.358;2022-12-07T04:56:32;100607.81;;;4.53;80.68
41596;BME280;27283;52.504;13.358;2022-12-07T04:59:03;100602.63;;;4.30;80.58
41596;BME280;27283;52.504;13.358;2022-12-07T05:01:35;100595.38;;;4.00;82.21
41596;BME280;27283;52.504;13.358;2022-12-07T05:04:07;100598.59;;;3.82;83.46
41596;BME280;27283;52.504;13.358;2022-12-07T05:06:41;100598.31;;;4.18;82.57
41596;BME280;27283;52.504;13.358;2022-12-07T05:09:15;100597.91;;;4.55;81.04
41596;BME280;27283;52.504;13.358;2022-12-07T05:11:46;100606.16;;;4.31;81.53
41596;BME280;27283;52.504;13.358;2022-12-07T05:14:19;100603.53;;;4.19;82.66
41596;BME280;27283;52.504;13.358;2022-12-07T05:16:51;100588.94;;;4.14;82.91
41596;BME280;27283;52.504;13.358;2022-12-07T05:19:25;100591.28;;;4.28;82.65
41596;BME280;27283;52.504;13.358;2022-12-07T05:22:00;100580.22;;;4.33;82.54
41596;BME280;27283;52.504;13.358;2022-12-07T05:24:34;100583.00;;;4.10;83.76
41596;BME280;27283;52.504;13.358;2022-12-07T05:27:05;100581.41;;;4.61;81.97
41596;BME280;27283;52.504;13.358;2022-12-07T05:29:37;100588.75;;;4.78;81.35
41596;BME280;27283;52.504;13.358;2022-12-07T05:32:09;100575.41;;;4.69;81.17
41596;BME280;27283;52.504;13.358;2022-12-07T05:34:43;100582.09;;;4.21;83.73
41596;BME280;27283;52.504;13.358;2022-12-07T05:37:18;100574.06;;;4.32;83.50
41596;BME280;27283;52.504;13.358;2022-12-07T05:39:49;100571.72;;;4.18;83.91
41596;BME280;27283;52.504;13.358;2022-12-07T05:42:21;100581.84;;;4.24;84.56
41596;BME280;27283;52.504;13.358;2022-12-07T05:44:52;100578.00;;;3.96;84.80
41596;BME280;27283;52.504;13.358;2022-12-07T05:47:26;100567.03;;;4.10;85.64
41596;BME280;27283;52.504;13.358;2022-12-07T05:49:57;100568.25;;;4.06;85.44
41596;BME280;27283;52.504;13.358;2022-12-07T05:52:33;100560.50;;;4.14;85.25
41596;BME280;27283;52.504;13.358;2022-12-07T05:55:08;100563.56;;;4.31;85.73
41596;BME280;27283;52.504;13.358;2022-12-07T05:57:42;100563.16;;;4.56;84.94
41596;BME280;27283;52.504;13.358;2022-12-07T06:00:37;100551.72;;;4.23;85.12
41596;BME280;27283;52.504;13.358;2022-12-07T06:03:05;100542.97;;;4.33;85.00
41596;BME280;27283;52.504;13.358;2022-12-07T06:05:37;100547.69;;;4.50;84.70
41596;BME280;27283;52.504;13.358;2022-12-07T06:08:11;100541.72;;;4.58;84.63
41596;BME280;27283;52.504;13.358;2022-12-07T06:10:43;100532.91;;;4.98;83.13
41596;BME280;27283;52.504;13.358;2022-12-07T06:13:14;100529.41;;;4.97;82.98
41596;BME280;27283;52.504;13.358;2022-12-07T06:15:44;100530.09;;;4.59;84.17
41596;BME280;27283;52.504;13.358;2022-12-07T06:18:16;100532.44;;;4.83;83.27
41596;BME280;27283;52.504;13.358;2022-12-07T06:20:48;100530.19;;;4.57;84.18
41596;BME280;27283;52.504;13.358;2022-12-07T06:23:23;100521.78;;;4.52;84.98
41596;BME280;27283;52.504;13.358;2022-12-07T06:25:55;100526.41;;;4.50;84.41
41596;BME280;27283;52.504;13.358;2022-12-07T06:28:26;100525.25;;;4.43;85.34
41596;BME280;27283;52.504;13.358;2022-12-07T06:30:58;100528.91;;;3.67;88.92
41596;BME280;27283;52.504;13.358;2022-12-07T06:33:44;100523.41;;;4.01;88.97
41596;BME280;27283;52.504;13.358;2022-12-07T06:36:33;100523.59;;;4.52;86.60
41596;BME280;27283;52.504;13.358;2022-12-07T06:39:07;100525.16;;;4.33;86.65
41596;BME280;27283;52.504;13.358;2022-12-07T06:41:39;100526.84;;;4.55;85.60
41596;BME280;27283;52.504;13.358;2022-12-07T06:44:12;100527.59;;;4.67;85.84
41596;BME280;27283;52.504;13.358;2022-12-07T06:46:44;100522.44;;;4.44;86.07
41596;BME280;27283;52.504;13.358;2022-12-07T06:49:17;100532.50;;;3.78;89.38
41596;BME280;27283;52.504;13.358;2022-12-07T06:51:49;100529.91;;;4.08;90.06
41596;BME280;27283;52.504;13.358;2022-12-07T06:54:24;100527.06;;;3.68;90.38
41596;BME280;27283;52.504;13.358;2022-12-07T06:56:59;100511.88;;;3.91;90.73
41596;BME280;27283;52.504;13.358;2022-12-07T06:59:41;100519.09;;;4.42;88.99
41596;BME280;27283;52.504;13.358;2022-12-07T07:02:13;100518.81;;;4.46;87.64
41596;BME280;27283;52.504;13.358;2022-12-07T07:04:46;100516.75;;;4.07;88.71
41596;BME280;27283;52.504;13.358;2022-12-07T07:07:18;100521.41;;;4.15;89.68
41596;BME280;27283;52.504;13.358;2022-12-07T07:09:53;100516.81;;;3.96;90.22
41596;BME280;27283;52.504;13.358;2022-12-07T07:12:25;100515.31;;;4.03;90.12
41596;BME280;27283;52.504;13.358;2022-12-07T07:14:56;100514.13;;;3.75;91.51
41596;BME280;27283;52.504;13.358;2022-12-07T07:17:28;100518.66;;;3.63;92.34
41596;BME280;27283;52.504;13.358;2022-12-07T07:20:00;100524.03;;;3.40;93.33
41596;BME280;27283;52.504;13.358;2022-12-07T07:22:32;100524.41;;;3.68;92.91
41596;BME280;27283;52.504;13.358;2022-12-07T07:25:07;100523.41;;;3.80;93.25
41596;BME280;27283;52.504;13.358;2022-12-07T07:27:41;100522.31;;;4.04;90.61
41596;BME280;27283;52.504;13.358;2022-12-07T07:30:14;100524.94;;;3.94;90.75
41596;BME280;27283;52.504;13.358;2022-12-07T07:32:46;100525.41;;;4.51;88.63
41596;BME280;27283;52.504;13.358;2022-12-07T07:35:17;100519.47;;;4.69;87.36
41596;BME280;27283;52.504;13.358;2022-12-07T07:37:49;100510.13;;;4.74;86.30
41596;BME280;27283;52.504;13.358;2022-12-07T07:40:25;100511.97;;;4.32;87.27
41596;BME280;27283;52.504;13.358;2022-12-07T07:42:58;100509.63;;;4.59;85.80
41596;BME280;27283;52.504;13.358;2022-12-07T07:45:30;100523.47;;;4.53;85.56
41596;BME280;27283;52.504;13.358;2022-12-07T07:48:01;100527.63;;;3.83;88.18
41596;BME280;27283;52.504;13.358;2022-12-07T07:50:33;100525.56;;;4.07;88.00
41596;BME280;27283;52.504;13.358;2022-12-07T07:53:05;100515.09;;;4.58;87.07
41596;BME280;27283;52.504;13.358;2022-12-07T07:55:40;100518.09;;;4.01;87.08
41596;BME280;27283;52.504;13.358;2022-12-07T07:58:12;100516.03;;;4.05;87.22
41596;BME280;27283;52.504;13.358;2022-12-07T08:00:44;100526.16;;;4.32;86.28
41596;BME280;27283;52.504;13.358;2022-12-07T08:03:16;100520.97;;;4.10;85.80
41596;BME280;27283;52.504;13.358;2022-12-07T08:05:49;100527.13;;;3.89;86.59
41596;BME280;27283;52.504;13.358;2022-12-07T08:08:21;100524.28;;;3.37;88.56
41596;BME280;27283;52.504;13.358;2022-12-07T08:10:57;100536.94;;;3.45;87.79
41596;BME280;27283;52.504;13.358;2022-12-07T08:13:30;100533.00;;;3.71;87.54
41596;BME280;27283;52.504;13.358;2022-12-07T08:16:04;100526.00;;;3.70;88.48
41596;BME280;27283;52.504;13.358;2022-12-07T08:18:38;100532.19;;;3.92;86.71
41596;BME280;27283;52.504;13.358;2022-12-07T08:21:13;100521.00;;;3.98;85.85
41596;BME280;27283;52.504;13.358;2022-12-07T08:23:46;100525.63;;;3.96;85.43
41596;BME280;27283;52.504;13.358;2022-12-07T08:26:22;100532.28;;;4.23;85.48
41596;BME280;27283;52.504;13.358;2022-12-07T08:28:55;100531.91;;;4.58;83.76
41596;BME280;27283;52.504;13.358;2022-12-07T08:31:27;100540.81;;;4.05;83.68
41596;BME280;27283;52.504;13.358;2022-12-07T08:34:01;100539.97;;;3.84;85.09
41596;BME280;27283;52.504;13.358;2022-12-07T08:36:34;100547.88;;;3.95;83.17
41596;BME280;27283;52.504;13.358;2022-12-07T08:39:07;100543.09;;;4.10;83.10
41596;BME280;27283;52.504;13.358;2022-12-07T08:42:02;100547.13;;;3.72;82.33
41596;BME280;27283;52.504;13.358;2022-12-07T08:44:34;100552.69;;;4.01;81.40
41596;BME280;27283;52.504;13.358;2022-12-07T08:47:06;100564.25;;;4.12;79.62
41596;BME280;27283;52.504;13.358;2022-12-07T08:49:41;100569.66;;;4.21;77.27
41596;BME280;27283;52.504;13.358;2022-12-07T08:52:15;100569.63;;;4.00;78.86
41596;BME280;27283;52.504;13.358;2022-12-07T08:54:47;100569.03;;;3.97;77.51
41596;BME280;27283;52.504;13.358;2022-12-07T08:57:24;100562.06;;;4.17;78.07
41596;BME280;27283;52.504;13.358;2022-12-07T08:59:57;100568.88;;;4.31;75.43
41596;BME280;27283;52.504;13.358;2022-12-07T09:02:31;100575.69;;;3.70;77.96
41596;BME280;27283;52.504;13.358;2022-12-07T09:05:04;100565.50;;;3.64;76.79
41596;BME280;27283;52.504;13.358;2022-12-07T09:07:48;100573.47;;;3.31;78.03
41596;BME280;27283;52.504;13.358;2022-12-07T09:10:22;100576.91;;;3.54;76.22
41596;BME280;27283;52.504;13.358;2022-12-07T09:12:58;100576.75;;;4.00;74.31
41596;BME280;27283;52.504;13.358;2022-12-07T09:15:32;100583.97;;;4.09;73.06
41596;BME280;27283;52.504;13.358;2022-12-07T09:18:05;100578.03;;;4.38;72.98
41596;BME280;27283;52.504;13.358;2022-12-07T09:20:45;100592.03;;;3.86;74.77
41596;BME280;27283;52.504;13.358;2022-12-07T09:23:18;100604.41;;;4.08;73.84
41596;BME280;27283;52.504;13.358;2022-12-07T09:25:51;100595.50;;;4.31;73.20
41596;BME280;27283;52.504;13.358;2022-12-07T09:28:27;100584.78;;;4.42;72.95
41596;BME280;27283;52.504;13.358;2022-12-07T09:30:59;100592.25;;;5.00;70.64
41596;BME280;27283;52.504;13.358;2022-12-07T09:33:55;100584.38;;;4.25;71.84
41596;BME280;27283;52.504;13.358;2022-12-07T09:36:28;100597.38;;;4.19;73.75
41596;BME280;27283;52.504;13.358;2022-12-07T09:39:01;100592.56;;;4.76;71.74
41596;BME280;27283;52.504;13.358;2022-12-07T09:41:33;100590.63;;;5.09;70.85
41596;BME280;27283;52.504;13.358;2022-12-07T09:44:14;100601.00;;;5.12;70.26
41596;BME280;27283;52.504;13.358;2022-12-07T09:46:51;100604.00;;;4.67;69.34
41596;BME280;27283;52.504;13.358;2022-12-07T09:49:27;100614.06;;;3.88;73.15
41596;BME280;27283;52.504;13.358;2022-12-07T09:52:02;100614.00;;;4.00;72.84
41596;BME280;27283;52.504;13.358;2022-12-07T09:54:40;100603.53;;;3.87;72.93
41596;BME280;27283;52.504;13.358;2022-12-07T09:57:13;100609.22;;;4.15;72.99
41596;BME280;27283;52.504;13.358;2022-12-07T09:59:49;100611.59;;;4.50;71.38
41596;BME280;27283;52.504;13.358;2022-12-07T10:02:33;100611.31;;;4.11;72.35
41596;BME280;27283;52.504;13.358;2022-12-07T10:05:10;100620.38;;;4.83;70.50
41596;BME280;27283;52.504;13.358;2022-12-07T10:07:51;100615.06;;;4.93;69.39
41596;BME280;27283;52.504;13.358;2022-12-07T10:10:26;100617.31;;;4.46;71.80
41596;BME280;27283;52.504;13.358;2022-12-07T10:13:12;100619.50;;;4.61;72.35
41596;BME280;27283;52.504;13.358;2022-12-07T10:15:52;100609.22;;;4.99;71.49
41596;BME280;27283;52.504;13.358;2022-12-07T10:18:35;100605.13;;;5.26;69.89
41596;BME280;27283;52.504;13.358;2022-12-07T10:21:13;100614.94;;;4.94;70.33
41596;BME280;27283;52.504;13.358;2022-12-07T10:24:00;100617.91;;;4.49;71.57
41596;BME280;27283;52.504;13.358;2022-12-07T10:26:35;100614.00;;;4.74;71.78
41596;BME280;27283;52.504;13.358;2022-12-07T10:29:22;100609.34;;;4.67;72.34
41596;BME280;27283;52.504;13.358;2022-12-07T10:32:05;100603.91;;;4.78;72.60
41596;BME280;27283;52.504;13.358;2022-12-07T10:34:38;100598.69;;;3.92;74.15
41596;BME280;27283;52.504;13.358;2022-12-07T10:37:19;100604.88;;;3.93;75.84
41596;BME280;27283;52.504;13.358;2022-12-07T10:39:56;100605.63;;;4.58;73.23
41596;BME280;27283;52.504;13.358;2022-12-07T10:42:30;100614.03;;;4.21;73.36
41596;BME280;27283;52.504;13.358;2022-12-07T10:45:13;100604.78;;;4.15;74.42
41596;BME280;27283;52.504;13.358;2022-12-07T10:47:53;100605.47;;;4.17;73.65
41596;BME280;27283;52.504;13.358;2022-12-07T10:50:43;100600.69;;;4.00;74.99
41596;BME280;27283;52.504;13.358;2022-12-07T10:53:33;100600.41;;;3.82;75.75
41596;BME280;27283;52.504;13.358;2022-12-07T10:59:41;100590.94;;;4.21;75.07
41596;BME280;27283;52.504;13.358;2022-12-07T11:02:37;100598.00;;;4.11;76.34
41596;BME280;27283;52.504;13.358;2022-12-07T11:05:24;100581.91;;;4.13;76.86
41596;BME280;27283;52.504;13.358;2022-12-07T11:08:04;100586.81;;;3.96;76.58
41596;BME280;27283;52.504;13.358;2022-12-07T11:10:47;100586.69;;;3.98;76.46
41596;BME280;27283;52.504;13.358;2022-12-07T11:13:27;100589.00;;;4.23;76.94
41596;BME280;27283;52.504;13.358;2022-12-07T11:16:23;100592.31;;;4.16;78.21
41596;BME280;27283;52.504;13.358;2022-12-07T11:19:06;100587.69;;;4.60;75.68
41596;BME280;27283;52.504;13.358;2022-12-07T11:21:52;100594.72;;;4.92;73.73
41596;BME280;27283;52.504;13.358;2022-12-07T11:24:39;100584.59;;;4.55;74.88
41596;BME280;27283;52.504;13.358;2022-12-07T11:27:21;100584.97;;;4.29;77.10
41596;BME280;27283;52.504;13.358;2022-12-07T11:30:21;100573.16;;;4.64;74.58
41596;BME280;27283;52.504;13.358;2022-12-07T11:33:04;100567.13;;;4.41;76.53
41596;BME280;27283;52.504;13.358;2022-12-07T11:35:49;100568.69;;;5.05;73.56
41596;BME280;27283;52.504;13.358;2022-12-07T11:38:37;100567.25;;;4.18;76.57
41596;BME280;27283;52.504;13.358;2022-12-07T11:41:10;100568.78;;;4.42;75.70
41596;BME280;27283;52.504;13.358;2022-12-07T11:43:58;100569.97;;;4.49;76.26
41596;BME280;27283;52.504;13.358;2022-12-07T11:46:43;100563.94;;;4.47;76.45
41596;BME280;27283;52.504;13.358;2022-12-07T11:49:23;100569.31;;;4.15;77.25
41596;BME280;27283;52.504;13.358;2022-12-07T11:51:58;100567.31;;;4.49;77.29
41596;BME280;27283;52.504;13.358;2022-12-07T11:54:40;100564.66;;;4.80;75.54
41596;BME280;27283;52.504;13.358;2022-12-07T11:57:19;100570.81;;;5.02;73.66
41596;BME280;27283;52.504;13.358;2022-12-07T11:59:58;100571.81;;;4.49;75.60
41596;BME280;27283;52.504;13.358;2022-12-07T12:02:37;100556.63;;;4.70;76.12
41596;BME280;27283;52.504;13.358;2022-12-07T12:05:16;100557.06;;;4.23;76.71
41596;BME280;27283;52.504;13.358;2022-12-07T12:07:55;100559.19;;;4.51;76.38
41596;BME280;27283;52.504;13.358;2022-12-07T12:11:01;100549.97;;;4.13;76.71
41596;BME280;27283;52.504;13.358;2022-12-07T12:13:55;100544.78;;;4.11;77.79
41596;BME280;27283;52.504;13.358;2022-12-07T12:17:10;100546.28;;;4.46;76.54
41596;BME280;27283;52.504;13.358;2022-12-07T12:19:45;100543.34;;;4.80;75.62
41596;BME280;27283;52.504;13.358;2022-12-07T12:22:35;100542.38;;;5.12;74.70
41596;BME280;27283;52.504;13.358;2022-12-07T12:25:20;100546.59;;;4.84;75.32
41596;BME280;27283;52.504;13.358;2022-12-07T12:27:58;100538.81;;;4.19;76.18
41596;BME280;27283;52.504;13.358;2022-12-07T12:30:34;100540.50;;;4.41;76.77
41596;BME280;27283;52.504;13.358;2022-12-07T12:33:14;100539.63;;;3.98;77.59
41596;BME280;27283;52.504;13.358;2022-12-07T12:36:23;100534.66;;;4.26;77.46
41596;BME280;27283;52.504;13.358;2022-12-07T12:39:12;100534.78;;;4.46;76.86
41596;BME280;27283;52.504;13.358;2022-12-07T12:41:58;100533.22;;;4.74;75.76
41596;BME280;27283;52.504;13.358;2022-12-07T12:48:10;100537.31;;;4.47;77.10
41596;BME280;27283;52.504;13.358;2022-12-07T12:54:04;100526.44;;;4.91;75.71
41596;BME280;27283;52.504;13.358;2022-12-07T12:56:42;100526.03;;;4.34;77.25
41596;BME280;27283;52.504;13.358;2022-12-07T12:59:25;100530.28;;;4.46;77.38
41596;BME280;27283;52.504;13.358;2022-12-07T13:02:16;100528.63;;;4.76;77.17
41596;BME280;27283;52.504;13.358;2022-12-07T13:04:57;100531.03;;;5.20;73.97
41596;BME280;27283;52.504;13.358;2022-12-07T13:07:56;100525.84;;;4.77;76.41
41596;BME280;27283;52.504;13.358;2022-12-07T13:10:44;100531.94;;;4.99;75.69
41596;BME280;27283;52.504;13.358;2022-12-07T13:13:35;100525.63;;;4.69;76.59
41596;BME280;27283;52.504;13.358;2022-12-07T13:16:39;100532.69;;;5.11;75.16
41596;BME280;27283;52.504;13.358;2022-12-07T13:22:57;100524.41;;;5.24;74.37
41596;BME280;27283;52.504;13.358;2022-12-07T13:25:36;100531.75;;;5.31;74.97
41596;BME280;27283;52.504;13.358;2022-12-07T13:28:15;100531.78;;;5.51;74.33
41596;BME280;27283;52.504;13.358;2022-12-07T13:31:04;100527.50;;;5.19;74.74
41596;BME280;27283;52.504;13.358;2022-12-07T13:33:45;100525.31;;;5.54;73.20
41596;BME280;27283;52.504;13.358;2022-12-07T13:36:24;100522.06;;;5.40;74.47
41596;BME280;27283;52.504;13.358;2022-12-07T13:39:00;100520.84;;;4.94;75.52
41596;BME280;27283;52.504;13.358;2022-12-07T13:41:50;100522.31;;;4.77;76.74
41596;BME280;27283;52.504;13.358;2022-12-07T13:44:23;100522.00;;;4.70;77.42
41596;BME280;27283;52.504;13.358;2022-12-07T13:47:09;100520.00;;;4.63;76.84
41596;BME280;27283;52.504;13.358;2022-12-07T13:49:48;100520.22;;;5.21;74.74
41596;BME280;27283;52.504;13.358;2022-12-07T13:52:23;100525.97;;;5.17;75.03
41596;BME280;27283;52.504;13.358;2022-12-07T13:55:11;100523.91;;;4.89;75.50
41596;BME280;27283;52.504;13.358;2022-12-07T13:57:52;100534.00;;;4.55;76.33